Time;durP1;ratioP1;P1;durP2;ratioP2;P2;SDS_P1;SDS_P2;PMS_P1;PMS_P2;Temp;Humidity;BMP_temperature;BMP_pressure;BME280_temperature;BME280_humidity;BME280_pressure;Samples;Min_cycle;Max_cycle;Signal;HPM_P1;HPM_P2
2021/01/14 00:01:02;;;;;;;2.28;0.63;;;0.80;99.90;;;;;;4928793;29;20060;-73
2021/01/14 00:03:27;;;;;;;2.08;0.40;;;1.00;99.90;;;;;;4928945;29;20048;-72
2021/01/14 00:05:53;;;;;;;0.98;0.50;;;0.90;99.90;;;;;;4911713;29;20038;-72
2021/01/14 00:08:18;;;;;;;3.47;0.55;;;1.00;99.90;;;;;;4928339;29;20050;-73
2021/01/14 00:10:44;;;;;;;0.28;0.28;;;1.00;99.90;;;;;;4927972;29;20057;-72
2021/01/14 00:13:10;;;;;;;2.50;0.82;;;1.10;99.90;;;;;;4927970;29;20067;-73
2021/01/14 00:15:37;;;;;;;1.30;0.40;;;1.10;99.90;;;;;;4927946;29;20024;-73
2021/01/14 00:18:03;;;;;;;0.38;0.22;;;1.10;99.90;;;;;;4928843;29;20039;-73
2021/01/14 00:20:29;;;;;;;0.50;0.40;;;1.20;99.90;;;;;;4928887;29;20036;-73
2021/01/14 00:22:54;;;;;;;0.40;0.20;;;1.20;99.90;;;;;;4927823;29;20059;-73
2021/01/14 00:25:21;;;;;;;1.13;0.43;;;1.30;99.90;;;;;;4911344;29;20087;-73
2021/01/14 00:27:47;;;;;;;2.93;0.93;;;1.30;99.90;;;;;;4928426;29;20024;-72
2021/01/14 00:30:15;;;;;;;0.40;0.17;;;1.30;99.90;;;;;;4928202;29;20038;-74
2021/01/14 00:32:41;;;;;;;0.55;0.40;;;1.30;99.90;;;;;;4928416;29;20036;-73
2021/01/14 00:35:07;;;;;;;1.83;0.73;;;1.30;99.90;;;;;;4911010;29;20127;-74
2021/01/14 00:37:51;;;;;;;0.40;0.35;;;1.30;99.90;;;;;;4927732;29;20068;-73
2021/01/14 00:40:29;;;;;;;3.00;0.70;;;1.30;99.90;;;;;;4928346;29;20028;-72
2021/01/14 00:43:07;;;;;;;1.08;0.52;;;1.40;99.90;;;;;;4928166;29;20028;-74
2021/01/14 00:45:34;;;;;;;1.17;0.28;;;1.40;99.90;;;;;;4928393;29;20485;-72
2021/01/14 00:48:01;;;;;;;7.22;0.75;;;1.40;99.90;;;;;;4928251;29;20087;-73
2021/01/14 00:50:27;;;;;;;0.55;0.50;;;1.30;99.90;;;;;;4928024;29;20044;-74
2021/01/14 00:52:53;;;;;;;0.43;0.40;;;1.30;99.90;;;;;;4911008;29;20028;-74
2021/01/14 00:55:19;;;;;;;0.40;0.40;;;1.20;99.90;;;;;;4911054;29;20036;-74
2021/01/14 00:57:46;;;;;;;2.05;0.88;;;1.20;99.90;;;;;;4910868;29;20036;-73
2021/01/14 01:00:17;;;;;;;4.78;0.75;;;1.20;99.90;;;;;;4928151;29;20032;-72
2021/01/14 01:02:44;;;;;;;1.15;0.70;;;1.10;99.90;;;;;;4927944;29;20032;-71
2021/01/14 01:05:11;;;;;;;5.78;0.88;;;1.10;99.90;;;;;;4927755;29;20028;-73
2021/01/14 01:07:38;;;;;;;1.10;0.60;;;1.00;99.90;;;;;;4927987;29;20025;-73
2021/01/14 01:10:08;;;;;;;2.38;0.57;;;1.00;99.90;;;;;;4928257;29;20090;-73
2021/01/14 01:12:33;;;;;;;2.00;0.45;;;1.00;99.90;;;;;;4910761;29;20393;-73
2021/01/14 01:14:59;;;;;;;2.15;0.75;;;1.00;99.90;;;;;;4928125;29;20051;-72
2021/01/14 01:17:31;;;;;;;11.57;0.68;;;1.00;99.90;;;;;;4927873;29;20068;-74
2021/01/14 01:19:57;;;;;;;1.60;0.40;;;0.90;99.90;;;;;;4910951;29;20039;-72
2021/01/14 01:22:22;;;;;;;0.90;0.40;;;0.90;99.90;;;;;;4910735;29;20028;-72
2021/01/14 01:24:48;;;;;;;2.10;0.50;;;0.90;99.90;;;;;;4927635;29;20068;-72
2021/01/14 01:27:13;;;;;;;0.85;0.50;;;0.90;99.90;;;;;;4927945;29;20023;-74
2021/01/14 01:29:39;;;;;;;2.47;1.13;;;0.90;99.90;;;;;;4927830;29;20044;-73
2021/01/14 01:32:04;;;;;;;0.63;0.40;;;0.90;99.90;;;;;;4927655;29;20028;-72
2021/01/14 01:34:30;;;;;;;0.90;0.60;;;0.90;99.90;;;;;;4929993;29;20040;-70
2021/01/14 01:36:56;;;;;;;2.10;0.85;;;0.90;99.90;;;;;;4931189;29;20517;-72
2021/01/14 01:39:21;;;;;;;2.95;1.27;;;0.80;99.90;;;;;;4913805;29;20057;-72
2021/01/14 01:41:47;;;;;;;0.50;0.35;;;0.80;99.90;;;;;;4914330;29;20119;-73
2021/01/14 01:44:13;;;;;;;0.65;0.63;;;0.80;99.90;;;;;;4914121;29;20050;-72
2021/01/14 01:46:38;;;;;;;2.25;0.60;;;0.80;99.90;;;;;;4931397;29;20032;-72
2021/01/14 01:49:04;;;;;;;0.60;0.43;;;0.80;99.90;;;;;;4931352;29;20047;-73
2021/01/14 01:51:40;;;;;;;0.30;0.30;;;0.80;99.90;;;;;;4931148;29;20036;-73
2021/01/14 01:54:06;;;;;;;1.23;1.00;;;0.70;99.90;;;;;;4931335;29;20028;-72
2021/01/14 01:56:33;;;;;;;3.83;0.93;;;0.70;99.90;;;;;;4931326;29;20107;-73
2021/01/14 01:58:59;;;;;;;7.72;0.95;;;0.70;99.90;;;;;;4931158;29;20113;-74
2021/01/14 02:01:26;;;;;;;1.33;0.63;;;0.70;99.90;;;;;;4914181;29;20024;-72
2021/01/14 02:03:52;;;;;;;1.65;0.82;;;0.70;99.90;;;;;;4913968;29;20024;-72
2021/01/14 02:06:18;;;;;;;1.00;0.68;;;0.70;99.90;;;;;;4930653;29;20032;-72
2021/01/14 02:08:48;;;;;;;14.45;0.80;;;0.70;99.90;;;;;;4930745;29;20044;-71
2021/01/14 02:11:33;;;;;;;4.90;0.85;;;0.70;99.90;;;;;;4913936;29;20501;-72
2021/01/14 02:14:19;;;;;;;0.65;0.55;;;0.70;99.90;;;;;;4930546;29;20059;-73
2021/01/14 02:16:46;;;;;;;4.97;0.47;;;0.70;99.90;;;;;;4930968;29;20036;-73
2021/01/14 02:19:25;;;;;;;1.00;0.57;;;0.70;99.90;;;;;;4930745;29;20035;-71
2021/01/14 02:21:55;;;;;;;4.90;1.00;;;0.70;99.90;;;;;;4913360;29;20024;-71
2021/01/14 02:24:36;;;;;;;1.63;0.80;;;0.70;99.90;;;;;;4913719;29;20043;-73
2021/01/14 02:27:03;;;;;;;1.17;0.77;;;0.70;99.90;;;;;;4930670;29;20521;-73
2021/01/14 02:29:29;;;;;;;4.15;1.27;;;0.70;99.90;;;;;;4930443;29;20048;-72
2021/01/14 02:31:55;;;;;;;0.88;0.70;;;0.80;99.90;;;;;;4930643;29;20043;-72
2021/01/14 02:34:20;;;;;;;0.98;0.63;;;0.80;99.90;;;;;;4930188;29;20059;-70
2021/01/14 02:36:46;;;;;;;0.68;0.38;;;0.80;99.90;;;;;;4930100;29;20374;-72
2021/01/14 02:39:11;;;;;;;3.90;1.17;;;0.80;99.90;;;;;;4930482;29;20035;-72
2021/01/14 02:41:37;;;;;;;0.43;0.40;;;0.80;99.90;;;;;;4930111;29;20028;-72
2021/01/14 02:44:03;;;;;;;3.75;1.33;;;0.90;99.90;;;;;;4929884;29;20028;-74
2021/01/14 02:46:30;;;;;;;7.47;1.25;;;0.90;99.90;;;;;;4913555;29;20031;-73
2021/01/14 02:49:07;;;;;;;2.72;0.77;;;1.00;99.90;;;;;;4930063;29;20040;-72
2021/01/14 02:51:49;;;;;;;1.13;1.00;;;1.00;99.90;;;;;;4930078;29;20028;-74
2021/01/14 02:54:16;;;;;;;1.77;0.68;;;1.00;99.90;;;;;;4929986;29;20044;-73
2021/01/14 02:56:47;;;;;;;0.90;0.57;;;1.00;99.90;;;;;;4929789;29;20033;-73
2021/01/14 02:59:12;;;;;;;2.60;0.95;;;1.00;99.90;;;;;;4930296;29;20032;-73
2021/01/14 03:01:38;;;;;;;5.95;1.00;;;1.10;99.90;;;;;;4930163;29;20032;-72
2021/01/14 03:04:03;;;;;;;10.15;1.80;;;1.10;99.90;;;;;;4929710;29;20461;-72
2021/01/14 03:06:29;;;;;;;2.05;1.10;;;1.10;99.90;;;;;;4929957;29;20043;-72
2021/01/14 03:08:55;;;;;;;2.22;1.05;;;1.10;99.90;;;;;;4929814;29;20048;-72
2021/01/14 03:11:28;;;;;;;2.78;1.40;;;1.10;99.90;;;;;;4912473;29;20039;-71
2021/01/14 03:13:55;;;;;;;2.58;1.05;;;1.10;99.90;;;;;;4913021;29;20405;-71
2021/01/14 03:16:20;;;;;;;5.32;1.02;;;1.10;99.90;;;;;;4929879;29;20036;-72
2021/01/14 03:18:48;;;;;;;1.75;1.35;;;1.20;99.90;;;;;;4929455;29;20059;-71
2021/01/14 03:21:18;;;;;;;6.22;2.10;;;1.10;99.90;;;;;;4929776;29;20028;-72
2021/01/14 03:23:43;;;;;;;5.95;1.33;;;1.20;99.90;;;;;;4929675;29;20115;-72
2021/01/14 03:26:12;;;;;;;5.38;1.60;;;1.20;99.90;;;;;;4929407;29;20032;-73
2021/01/14 03:28:38;;;;;;;4.53;1.58;;;1.20;99.90;;;;;;4929625;29;20036;-72
2021/01/14 03:31:04;;;;;;;2.67;1.52;;;1.20;99.90;;;;;;4929270;29;20036;-73
2021/01/14 03:33:29;;;;;;;10.85;2.47;;;1.20;99.90;;;;;;4929545;29;20388;-74
2021/01/14 03:35:55;;;;;;;4.70;1.52;;;1.30;99.90;;;;;;4912098;29;20028;-73
2021/01/14 03:38:20;;;;;;;10.45;1.73;;;1.30;99.90;;;;;;4911917;29;20107;-72
2021/01/14 03:40:46;;;;;;;1.50;1.00;;;1.30;99.90;;;;;;4929231;29;20024;-72
2021/01/14 03:43:12;;;;;;;2.00;0.90;;;1.30;99.90;;;;;;4929378;29;20029;-73
2021/01/14 03:45:37;;;;;;;2.00;1.67;;;1.30;99.90;;;;;;4911933;29;20051;-72
2021/01/14 03:48:04;;;;;;;3.63;0.93;;;1.30;99.90;;;;;;4911959;29;20038;-73
2021/01/14 03:50:29;;;;;;;3.95;1.17;;;1.30;99.90;;;;;;4929528;29;20024;-73
2021/01/14 03:52:55;;;;;;;1.20;0.98;;;1.40;99.90;;;;;;4928771;29;20043;-71
2021/01/14 03:55:21;;;;;;;2.40;1.25;;;1.40;99.90;;;;;;4929111;29;20064;-72
2021/01/14 03:57:47;;;;;;;1.95;1.20;;;1.40;99.90;;;;;;4928243;29;20028;-71
2021/01/14 04:00:13;;;;;;;3.05;1.70;;;1.40;99.90;;;;;;4911585;29;20556;-73
2021/01/14 04:02:38;;;;;;;6.00;1.63;;;1.40;99.90;;;;;;4929025;29;20032;-72
2021/01/14 04:05:05;;;;;;;2.28;1.35;;;1.40;99.90;;;;;;4929003;29;20024;-73
2021/01/14 04:07:30;;;;;;;3.40;1.73;;;1.30;99.90;;;;;;4928409;29;20040;-73
2021/01/14 04:09:56;;;;;;;4.22;1.60;;;1.40;99.90;;;;;;4928771;29;20051;-73
2021/01/14 04:12:28;;;;;;;2.05;0.93;;;1.40;99.90;;;;;;4911679;29;20083;-73
2021/01/14 04:14:57;;;;;;;4.82;2.05;;;1.40;99.90;;;;;;4928604;29;20024;-72
2021/01/14 04:17:24;;;;;;;1.45;1.10;;;1.40;99.90;;;;;;4928722;29;20489;-73
2021/01/14 04:19:49;;;;;;;2.50;1.40;;;1.40;99.90;;;;;;4928546;29;20477;-73
2021/01/14 04:22:15;;;;;;;7.60;2.15;;;1.40;99.90;;;;;;4928115;29;20059;-72
2021/01/14 04:24:41;;;;;;;2.67;1.70;;;1.40;99.90;;;;;;4928667;29;20035;-72
2021/01/14 04:27:07;;;;;;;3.78;1.20;;;1.40;99.90;;;;;;4928552;29;20085;-74
2021/01/14 04:29:33;;;;;;;5.93;1.83;;;1.40;99.90;;;;;;4928334;29;20076;-73
2021/01/14 04:31:59;;;;;;;7.00;1.75;;;1.40;99.90;;;;;;4928354;29;20400;-72
2021/01/14 04:34:25;;;;;;;3.67;1.73;;;1.40;99.90;;;;;;4928310;29;20091;-72
2021/01/14 04:37:01;;;;;;;5.43;1.17;;;1.40;99.90;;;;;;4928071;29;20056;-72
2021/01/14 04:39:28;;;;;;;5.82;2.10;;;1.40;99.90;;;;;;4928613;29;20040;-73
2021/01/14 04:41:58;;;;;;;7.93;1.30;;;1.40;99.90;;;;;;4928287;29;20099;-72
2021/01/14 04:44:25;;;;;;;4.00;1.88;;;1.40;99.90;;;;;;4928398;29;20036;-74
2021/01/14 04:47:07;;;;;;;7.95;1.95;;;1.50;99.90;;;;;;4928274;29;20028;-73
2021/01/14 04:49:34;;;;;;;3.92;1.30;;;1.40;99.90;;;;;;4928019;29;20043;-73
2021/01/14 04:52:04;;;;;;;4.28;1.95;;;1.50;99.90;;;;;;4928322;29;20032;-74
2021/01/14 04:54:34;;;;;;;8.60;1.52;;;1.50;99.90;;;;;;4928149;29;20500;-73
2021/01/14 04:57:19;;;;;;;4.10;1.20;;;1.50;99.90;;;;;;4927814;29;20035;-74
2021/01/14 04:59:52;;;;;;;5.97;1.75;;;1.50;99.90;;;;;;4928259;29;20048;-73
2021/01/14 05:02:23;;;;;;;5.32;1.77;;;1.50;99.90;;;;;;4927964;29;20032;-73
2021/01/14 05:04:51;;;;;;;4.65;1.27;;;1.50;99.90;;;;;;4927969;29;20559;-73
2021/01/14 05:07:31;;;;;;;18.55;1.70;;;1.50;99.90;;;;;;4928407;29;20036;-72
2021/01/14 05:10:06;;;;;;;8.05;2.55;;;1.50;99.90;;;;;;4931838;29;20069;-73
2021/01/14 05:12:33;;;;;;;3.97;1.50;;;1.50;99.90;;;;;;4932027;29;20039;-74
2021/01/14 05:15:00;;;;;;;1.58;0.88;;;1.50;99.90;;;;;;4932307;29;20035;-72
2021/01/14 05:17:27;;;;;;;2.55;1.38;;;1.50;99.90;;;;;;4914592;29;20087;-73
2021/01/14 05:19:56;;;;;;;3.70;1.20;;;1.50;99.90;;;;;;4931726;29;20020;-73
2021/01/14 05:22:25;;;;;;;6.05;2.40;;;1.50;99.90;;;;;;4931625;29;20043;-73
2021/01/14 05:25:05;;;;;;;2.83;1.90;;;1.50;99.90;;;;;;4931441;29;20441;-73
2021/01/14 05:27:31;;;;;;;5.43;1.45;;;1.50;99.90;;;;;;4931884;29;20035;-73
2021/01/14 05:30:06;;;;;;;10.80;2.83;;;1.50;99.90;;;;;;4931596;29;20451;-73
2021/01/14 05:32:33;;;;;;;9.27;1.95;;;1.50;99.90;;;;;;4931626;29;20036;-70
2021/01/14 05:34:59;;;;;;;10.30;2.83;;;1.50;99.90;;;;;;4931909;29;20032;-72
2021/01/14 05:37:25;;;;;;;3.63;1.80;;;1.50;99.90;;;;;;4913745;29;20048;-71
2021/01/14 05:39:51;;;;;;;7.15;2.40;;;1.50;99.90;;;;;;4931543;29;20028;-71
2021/01/14 05:42:17;;;;;;;3.03;1.73;;;1.50;99.90;;;;;;4931391;29;20047;-72
2021/01/14 05:44:44;;;;;;;4.82;1.73;;;1.50;99.90;;;;;;4914133;29;20462;-71
2021/01/14 05:47:24;;;;;;;3.53;1.83;;;1.50;99.90;;;;;;4914455;29;20082;-71
2021/01/14 05:50:01;;;;;;;2.53;1.63;;;1.50;99.90;;;;;;4931110;29;20039;-72
2021/01/14 05:52:29;;;;;;;2.40;1.42;;;1.50;99.90;;;;;;4914221;29;20036;-72
2021/01/14 05:54:58;;;;;;;3.30;1.83;;;1.50;99.90;;;;;;4931399;29;20428;-72
2021/01/14 05:57:32;;;;;;;2.65;1.40;;;1.50;99.90;;;;;;4930569;29;20036;-68
2021/01/14 06:00:00;;;;;;;4.03;1.45;;;1.50;99.90;;;;;;4931399;29;20032;-69
2021/01/14 06:02:31;;;;;;;4.47;2.25;;;1.50;99.90;;;;;;4929706;29;20396;-70
2021/01/14 06:04:57;;;;;;;2.92;1.58;;;1.50;99.90;;;;;;4929205;29;20024;-70
2021/01/14 06:07:36;;;;;;;5.22;1.63;;;1.50;99.90;;;;;;4930615;29;20036;-70
2021/01/14 06:10:02;;;;;;;7.53;2.38;;;1.50;99.90;;;;;;4931128;29;20049;-71
2021/01/14 06:12:28;;;;;;;2.72;1.65;;;1.50;99.90;;;;;;4930856;29;20036;-71
2021/01/14 06:14:53;;;;;;;3.08;2.00;;;1.50;99.90;;;;;;4930878;29;20031;-70
2021/01/14 06:17:29;;;;;;;6.03;1.65;;;1.50;99.90;;;;;;4930358;29;20355;-71
2021/01/14 06:20:06;;;;;;;4.15;1.80;;;1.40;99.90;;;;;;4930103;29;20080;-69
2021/01/14 06:22:32;;;;;;;3.63;1.52;;;1.40;99.90;;;;;;4930896;29;20020;-71
2021/01/14 06:24:58;;;;;;;6.50;1.90;;;1.40;99.90;;;;;;4930410;29;20401;-70
2021/01/14 06:27:24;;;;;;;5.15;2.05;;;1.50;99.90;;;;;;4930543;29;20032;-71
2021/01/14 06:30:07;;;;;;;2.47;1.38;;;1.40;99.90;;;;;;4930728;29;20055;-70
2021/01/14 06:32:37;;;;;;;7.00;2.15;;;1.40;99.90;;;;;;4913197;29;20056;-71
2021/01/14 06:35:05;;;;;;;7.85;2.25;;;1.40;99.90;;;;;;4930529;29;20457;-71
2021/01/14 06:37:36;;;;;;;7.00;2.58;;;1.40;99.90;;;;;;4929931;29;20091;-71
2021/01/14 06:40:03;;;;;;;4.88;2.85;;;1.50;99.90;;;;;;4930199;29;20028;-72
2021/01/14 06:42:30;;;;;;;4.55;2.08;;;1.50;99.90;;;;;;4930431;29;20056;-70
2021/01/14 06:45:08;;;;;;;5.55;2.10;;;1.50;99.90;;;;;;4930395;29;20038;-71
2021/01/14 06:47:39;;;;;;;6.20;2.17;;;1.50;99.90;;;;;;4930526;29;20067;-72
2021/01/14 06:50:27;;;;;;;4.72;1.33;;;1.50;99.90;;;;;;4930277;29;20044;-73
2021/01/14 06:53:12;;;;;;;5.03;1.58;;;1.50;99.90;;;;;;4929195;29;20124;-70
2021/01/14 06:55:38;;;;;;;2.33;1.38;;;1.50;99.90;;;;;;4929501;29;20028;-71
2021/01/14 06:58:05;;;;;;;3.17;1.73;;;1.50;99.90;;;;;;4929763;29;20437;-71
2021/01/14 07:00:34;;;;;;;3.38;1.90;;;1.50;99.90;;;;;;4929668;29;20063;-71
2021/01/14 07:06:06;;;;;;;5.53;2.22;;;1.50;99.90;;;;;;4929786;29;20043;-71
2021/01/14 07:08:56;;;;;;;7.20;1.90;;;1.50;99.90;;;;;;4919252;29;20068;-70
2021/01/14 07:11:22;;;;;;;3.00;1.80;;;1.50;99.90;;;;;;4912731;29;20028;-72
2021/01/14 07:13:52;;;;;;;5.20;1.58;;;1.50;99.90;;;;;;4912415;29;20035;-71
2021/01/14 07:16:23;;;;;;;11.40;2.00;;;1.60;99.90;;;;;;4929653;29;20024;-72
2021/01/14 07:18:50;;;;;;;3.08;1.60;;;1.60;99.90;;;;;;4912311;29;20036;-71
2021/01/14 07:21:36;;;;;;;3.65;1.77;;;1.60;99.90;;;;;;4912018;29;20044;-69
2021/01/14 07:24:18;;;;;;;5.00;2.35;;;1.60;99.90;;;;;;4929335;29;20362;-71
2021/01/14 07:26:52;;;;;;;3.85;1.75;;;1.60;99.90;;;;;;4928663;29;20075;-70
2021/01/14 07:29:18;;;;;;;6.40;1.80;;;1.60;99.90;;;;;;4909929;29;20036;-71
2021/01/14 07:31:49;;;;;;;5.80;1.45;;;1.60;99.90;;;;;;4910141;29;20037;-71
2021/01/14 07:34:36;;;;;;;4.90;1.88;;;1.60;99.90;;;;;;4910259;29;20079;-71
2021/01/14 07:37:03;;;;;;;7.78;2.58;;;1.60;99.90;;;;;;4892669;29;20080;-71
2021/01/14 07:39:57;;;;;;;2.60;1.60;;;1.60;99.90;;;;;;4893491;29;20036;-70
2021/01/14 07:42:27;;;;;;;5.38;1.95;;;1.60;99.90;;;;;;4909857;29;20040;-69
2021/01/14 07:44:55;;;;;;;2.20;1.60;;;1.60;99.90;;;;;;4909961;29;20044;-71
2021/01/14 07:47:25;;;;;;;3.80;1.83;;;1.60;99.90;;;;;;4910006;29;20040;-70
2021/01/14 07:49:51;;;;;;;4.32;2.42;;;1.60;99.90;;;;;;4909506;29;20040;-71
2021/01/14 07:52:31;;;;;;;8.55;3.30;;;1.70;99.90;;;;;;4892606;29;20556;-72
2021/01/14 07:54:58;;;;;;;7.68;3.88;;;1.60;99.90;;;;;;4909674;29;20159;-72
2021/01/14 07:57:28;;;;;;;2.03;1.48;;;1.70;99.90;;;;;;4909605;29;20040;-71
2021/01/14 07:59:58;;;;;;;3.20;1.35;;;1.70;99.90;;;;;;4910003;29;20405;-70
2021/01/14 08:02:24;;;;;;;3.83;2.10;;;1.70;99.90;;;;;;4892856;29;20888;-70
2021/01/14 08:04:52;;;;;;;5.18;2.67;;;1.70;99.90;;;;;;4909448;29;20028;-70
2021/01/14 08:07:23;;;;;;;7.45;1.92;;;1.70;99.90;;;;;;4909848;29;20355;-71
2021/01/14 08:09:50;;;;;;;6.53;2.17;;;1.70;99.90;;;;;;4909351;29;20405;-71
2021/01/14 08:12:15;;;;;;;4.05;2.10;;;1.80;99.90;;;;;;4909483;29;20036;-71
2021/01/14 08:14:41;;;;;;;3.63;1.67;;;1.70;99.90;;;;;;4908285;29;20601;-71
2021/01/14 08:17:20;;;;;;;6.93;2.20;;;1.70;99.90;;;;;;4909022;29;20028;-72
2021/01/14 08:19:46;;;;;;;9.00;3.50;;;1.80;99.90;;;;;;4909009;29;20036;-72
2021/01/14 08:22:13;;;;;;;9.02;4.53;;;1.80;99.90;;;;;;4909103;29;20029;-70
2021/01/14 08:24:44;;;;;;;12.95;8.63;;;1.80;99.90;;;;;;4891915;29;20037;-72
2021/01/14 08:27:32;;;;;;;9.88;6.10;;;1.80;99.90;;;;;;4909052;29;20051;-72
2021/01/14 08:29:59;;;;;;;12.63;7.00;;;1.80;99.90;;;;;;4892014;29;20424;-72
2021/01/14 08:32:44;;;;;;;5.53;3.58;;;1.80;99.90;;;;;;4891940;29;20100;-71
2021/01/14 08:35:15;;;;;;;6.80;4.00;;;1.80;99.90;;;;;;4908935;29;20052;-71
2021/01/14 08:37:49;;;;;;;14.15;5.53;;;1.80;99.90;;;;;;4908359;29;20053;-71
2021/01/14 08:40:17;;;;;;;7.13;4.30;;;1.80;99.90;;;;;;4908763;29;20036;-70
2021/01/14 08:42:45;;;;;;;7.47;2.72;;;1.80;99.90;;;;;;4891432;29;20033;-70
2021/01/14 08:45:16;;;;;;;7.53;2.70;;;1.80;99.90;;;;;;4908317;29;20063;-70
2021/01/14 08:48:01;;;;;;;5.40;2.05;;;1.80;99.90;;;;;;4908833;29;20029;-70
2021/01/14 08:50:39;;;;;;;;;;;1.90;99.90;;;;;;4908810;29;20045;-71
2021/01/14 08:53:07;;;;;;;3.13;1.98;;;1.90;99.90;;;;;;4891733;29;19955;-70
2021/01/14 08:55:35;;;;;;;3.88;2.33;;;2.00;99.90;;;;;;4909355;29;20434;-70
2021/01/14 08:58:05;;;;;;;3.42;1.88;;;1.90;99.90;;;;;;4909020;29;20028;-71
2021/01/14 09:00:31;;;;;;;1.50;1.30;;;2.00;99.90;;;;;;4892386;29;20394;-74
2021/01/14 09:02:57;;;;;;;3.45;1.40;;;2.00;99.90;;;;;;4909330;29;20035;-71
2021/01/14 09:05:23;;;;;;;9.13;3.03;;;2.00;99.90;;;;;;4908629;29;20104;-71
2021/01/14 09:08:05;;;;;;;7.57;1.95;;;2.00;99.90;;;;;;4908926;29;20060;-72
2021/01/14 09:10:48;;;;;;;5.93;2.08;;;2.00;99.90;;;;;;4909307;29;20044;-71
2021/01/14 09:13:28;;;;;;;6.82;1.80;;;2.10;99.90;;;;;;4908623;29;20033;-71
2021/01/14 09:15:56;;;;;;;3.30;2.05;;;2.10;99.90;;;;;;4908694;29;20686;-71
2021/01/14 09:18:33;;;;;;;3.72;1.52;;;2.20;99.90;;;;;;4909004;29;20029;-70
2021/01/14 09:21:00;;;;;;;7.82;2.42;;;2.30;99.90;;;;;;4908450;29;20104;-70
2021/01/14 09:23:32;;;;;;;8.02;2.05;;;2.30;99.90;;;;;;4909147;29;20033;-71
2021/01/14 09:25:58;;;;;;;8.40;1.60;;;2.40;99.90;;;;;;4908830;29;20445;-70
2021/01/14 09:28:26;;;;;;;5.63;2.35;;;2.40;99.90;;;;;;4891515;29;20047;-71
2021/01/14 09:30:57;;;;;;;4.38;2.00;;;2.40;99.90;;;;;;4908750;29;20121;-71
2021/01/14 09:33:24;;;;;;;4.03;1.83;;;2.50;99.90;;;;;;4908319;29;20379;-71
2021/01/14 09:35:57;;;;;;;3.03;1.88;;;2.50;99.90;;;;;;4908481;29;20038;-72
2021/01/14 09:38:25;;;;;;;1.90;1.20;;;2.50;99.90;;;;;;4908193;29;20044;-71
2021/01/14 09:40:55;;;;;;;3.78;1.50;;;2.60;99.90;;;;;;4908385;29;20312;-71
2021/01/14 09:43:24;;;;;;;3.78;1.75;;;2.60;99.90;;;;;;4908701;29;20037;-71
2021/01/14 09:45:51;;;;;;;8.05;1.80;;;2.60;99.90;;;;;;4908743;29;20036;-70
2021/01/14 09:48:24;;;;;;;3.97;1.65;;;2.60;99.90;;;;;;4908376;29;20025;-71
2021/01/14 09:50:53;;;;;;;2.88;1.90;;;2.60;99.90;;;;;;4924155;29;20024;-71
2021/01/14 09:53:21;;;;;;;2.72;1.40;;;2.70;99.90;;;;;;4925946;29;20036;-70
2021/01/14 09:55:47;;;;;;;4.18;2.33;;;2.70;99.90;;;;;;4928121;29;20024;-71
2021/01/14 09:58:21;;;;;;;3.15;1.77;;;2.70;99.90;;;;;;4930597;29;20087;-73
2021/01/14 10:00:50;;;;;;;3.33;1.70;;;2.70;99.90;;;;;;4931307;29;20063;-70
2021/01/14 10:03:19;;;;;;;3.63;1.77;;;2.70;99.90;;;;;;4930832;29;20433;-70
2021/01/14 10:05:49;;;;;;;3.63;1.58;;;2.70;99.90;;;;;;4929831;29;20096;-70
2021/01/14 10:08:25;;;;;;;3.45;1.67;;;2.70;99.90;;;;;;4928482;29;20171;-69
2021/01/14 10:10:51;;;;;;;2.78;1.40;;;2.70;99.90;;;;;;4930626;29;20044;-71
2021/01/14 10:13:17;;;;;;;4.70;1.90;;;2.70;99.90;;;;;;4930331;29;20059;-72
2021/01/14 10:15:43;;;;;;;12.57;2.15;;;2.70;99.90;;;;;;4930395;29;20036;-72
2021/01/14 10:18:29;;;;;;;2.97;1.75;;;2.80;99.90;;;;;;4930908;29;20111;-71
2021/01/14 10:21:02;;;;;;;4.78;2.25;;;2.80;99.90;;;;;;4930312;29;20041;-71
2021/01/14 10:23:28;;;;;;;4.75;2.00;;;2.80;99.90;;;;;;4929464;29;20059;-72
2021/01/14 10:25:55;;;;;;;4.63;2.25;;;2.80;99.90;;;;;;4930269;29;20035;-72
2021/01/14 10:28:24;;;;;;;2.67;1.73;;;2.80;99.90;;;;;;4912566;29;20718;-71
2021/01/14 10:30:51;;;;;;;1.92;1.30;;;2.90;99.90;;;;;;4930214;29;20832;-72
2021/01/14 10:33:17;;;;;;;4.07;2.05;;;2.90;99.90;;;;;;4930201;29;20450;-72
2021/01/14 10:35:43;;;;;;;7.15;2.17;;;2.90;99.90;;;;;;4930168;29;20032;-72
2021/01/14 10:38:11;;;;;;;4.72;1.92;;;3.00;99.90;;;;;;4929778;29;20458;-73
2021/01/14 10:40:40;;;;;;;2.83;1.50;;;3.10;99.90;;;;;;4930637;29;20025;-70
2021/01/14 10:43:07;;;;;;;4.43;1.73;;;3.20;99.90;;;;;;4913086;29;20369;-73
2021/01/14 10:45:38;;;;;;;5.05;1.98;;;3.30;99.90;;;;;;4930160;29;20032;-71
2021/01/14 10:48:06;;;;;;;6.63;1.80;;;3.40;99.90;;;;;;4913232;29;20036;-71
2021/01/14 10:50:31;;;;;;;3.42;1.58;;;3.30;99.90;;;;;;4928597;29;20032;-71
2021/01/14 10:53:04;;;;;;;6.95;2.05;;;3.40;99.90;;;;;;4928391;29;20024;-71
2021/01/14 10:55:32;;;;;;;5.40;2.20;;;3.40;99.90;;;;;;4930106;29;20036;-73
2021/01/14 10:57:59;;;;;;;4.38;2.65;;;3.40;99.90;;;;;;4930061;29;20044;-70
2021/01/14 11:00:27;;;;;;;10.35;4.97;;;3.50;99.90;;;;;;4929933;29;20036;-70
2021/01/14 11:03:10;;;;;;;14.05;6.28;;;3.50;99.90;;;;;;4929822;29;20038;-71
2021/01/14 11:05:47;;;;;;;3.92;2.22;;;3.50;99.90;;;;;;4929399;29;20517;-70
2021/01/14 11:08:17;;;;;;;9.48;5.57;;;3.50;99.90;;;;;;4929730;29;20036;-72
2021/01/14 11:10:45;;;;;;;7.57;4.70;;;3.50;99.90;;;;;;4929950;29;20043;-70
2021/01/14 11:13:13;;;;;;;7.10;4.20;;;3.50;99.90;;;;;;4929284;29;20087;-73
2021/01/14 11:15:39;;;;;;;5.63;2.50;;;3.40;99.90;;;;;;4929818;29;20059;-73
2021/01/14 11:18:07;;;;;;;4.80;2.47;;;3.40;99.90;;;;;;4929607;29;20035;-71
2021/01/14 11:20:35;;;;;;;3.80;1.77;;;3.30;99.90;;;;;;4929367;29;20036;-71
2021/01/14 11:23:00;;;;;;;3.78;1.95;;;3.20;99.90;;;;;;4912628;29;20032;-72
2021/01/14 11:25:26;;;;;;;4.55;2.05;;;3.30;99.90;;;;;;4929154;29;20039;-72
2021/01/14 11:27:52;;;;;;;8.38;2.50;;;3.30;99.90;;;;;;4929181;29;20036;-71
2021/01/14 11:30:20;;;;;;;5.13;2.58;;;3.40;99.90;;;;;;4929266;29;20051;-71
2021/01/14 11:32:46;;;;;;;13.43;2.25;;;3.40;99.90;;;;;;4911994;29;20027;-71
2021/01/14 11:35:12;;;;;;;4.40;1.95;;;3.40;99.90;;;;;;4928279;29;20028;-70
2021/01/14 11:37:38;;;;;;;5.53;2.47;;;3.50;99.90;;;;;;4928986;29;20044;-71
2021/01/14 11:40:05;;;;;;;4.85;2.45;;;3.60;99.90;;;;;;4929164;29;20028;-70
2021/01/14 11:42:31;;;;;;;3.97;2.42;;;3.70;99.90;;;;;;4929249;29;20115;-72
2021/01/14 11:44:57;;;;;;;2.47;1.58;;;3.80;99.90;;;;;;4929137;29;20051;-71
2021/01/14 11:47:22;;;;;;;5.63;2.38;;;3.80;99.90;;;;;;4928863;29;20028;-71
2021/01/14 11:49:48;;;;;;;2.78;1.70;;;3.80;99.90;;;;;;4928684;29;20050;-73
2021/01/14 11:52:15;;;;;;;2.17;1.45;;;3.80;99.90;;;;;;4928843;29;20032;-72
2021/01/14 11:54:48;;;;;;;4.50;2.38;;;3.80;99.90;;;;;;4928660;29;20020;-72
2021/01/14 11:57:14;;;;;;;3.10;1.60;;;3.80;99.90;;;;;;4927586;29;20350;-70
2021/01/14 11:59:57;;;;;;;2.50;1.60;;;3.90;99.90;;;;;;4927044;29;20024;-73
2021/01/14 12:02:23;;;;;;;1.33;1.17;;;3.90;99.90;;;;;;4927992;29;20038;-71
2021/01/14 12:04:49;;;;;;;8.32;2.05;;;3.90;99.90;;;;;;4911549;29;20036;-71
2021/01/14 12:07:14;;;;;;;5.40;1.95;;;3.90;99.90;;;;;;4928459;29;20035;-72
2021/01/14 12:09:40;;;;;;;3.85;2.03;;;3.90;99.90;;;;;;4928414;29;20060;-71
2021/01/14 12:12:06;;;;;;;3.67;1.42;;;3.90;99.90;;;;;;4928653;29;20043;-72
2021/01/14 12:14:32;;;;;;;3.42;1.58;;;3.90;99.90;;;;;;4928884;29;20111;-73
2021/01/14 12:16:57;;;;;;;4.47;1.95;;;3.80;99.90;;;;;;4927446;29;20452;-72
2021/01/14 12:19:23;;;;;;;3.83;2.13;;;3.80;99.90;;;;;;4928596;29;20084;-71
2021/01/14 12:22:02;;;;;;;5.93;2.47;;;3.70;99.90;;;;;;4928441;29;20036;-72
2021/01/14 12:24:27;;;;;;;4.28;1.95;;;3.70;99.90;;;;;;4927955;29;20043;-72
2021/01/14 12:26:53;;;;;;;2.60;1.55;;;3.70;99.90;;;;;;4928147;29;20130;-71
2021/01/14 12:29:18;;;;;;;4.15;1.75;;;3.60;99.90;;;;;;4911011;29;20059;-71
2021/01/14 12:31:44;;;;;;;6.30;2.20;;;3.60;99.90;;;;;;4928066;29;20036;-72
2021/01/14 12:34:10;;;;;;;5.70;1.95;;;3.60;99.90;;;;;;4928631;29;20034;-73
2021/01/14 12:36:35;;;;;;;4.72;2.17;;;3.60;99.90;;;;;;4927499;29;20024;-73
2021/01/14 12:39:02;;;;;;;3.72;1.70;;;3.50;99.90;;;;;;4928171;29;20051;-73
2021/01/14 12:41:32;;;;;;;3.95;2.03;;;3.50;99.90;;;;;;4928488;29;20036;-71
2021/01/14 12:43:59;;;;;;;8.43;2.65;;;3.50;99.90;;;;;;4927433;29;20028;-73
2021/01/14 12:46:39;;;;;;;3.88;2.30;;;3.40;99.90;;;;;;4911170;29;20119;-71
2021/01/14 12:49:06;;;;;;;4.28;2.05;;;3.40;99.90;;;;;;4927992;29;20104;-71
2021/01/14 12:51:33;;;;;;;6.57;2.35;;;3.40;99.90;;;;;;4927617;29;20031;-72
2021/01/14 12:53:59;;;;;;;5.55;2.13;;;3.40;99.90;;;;;;4926964;29;20032;-72
2021/01/14 12:56:25;;;;;;;3.17;1.50;;;3.40;99.90;;;;;;4927263;29;20092;-73
2021/01/14 12:58:51;;;;;;;7.13;2.42;;;3.30;99.90;;;;;;4926822;29;20035;-73
2021/01/14 13:01:17;;;;;;;2.65;1.13;;;3.20;99.90;;;;;;4910391;29;20032;-72
2021/01/14 13:03:43;;;;;;;3.00;1.95;;;3.10;99.90;;;;;;4927453;29;20037;-73
2021/01/14 13:06:09;;;;;;;11.07;2.17;;;3.20;99.90;;;;;;4909933;29;20032;-74
2021/01/14 13:08:35;;;;;;;3.97;2.05;;;3.20;99.90;;;;;;4925746;29;20410;-72
2021/01/14 13:11:00;;;;;;;6.55;2.00;;;3.20;99.90;;;;;;4926659;29;20038;-73